Time;durP1;ratioP1;P1;durP2;ratioP2;P2;SDS_P1;SDS_P2;PMS_P1;PMS_P2;Temp;Humidity;BMP_temperature;BMP_pressure;BME280_temperature;BME280_humidity;BME280_pressure;Samples;Min_cycle;Max_cycle;Signal;HPM_P1;HPM_P2
2023/05/30 00:04:23;;;;;;;16.47;3.07;;;;;;;14.82;56.51;101185.45;5126209;56;1140847;-65
2023/05/30 00:09:28;;;;;;;9.03;2.80;;;;;;;14.67;56.83;101190.75;5117037;56;1190853;-65
2023/05/30 00:14:36;;;;;;;9.88;3.27;;;;;;;14.44;57.48;101198.00;5061796;57;1138811;-66
2023/05/30 00:19:42;;;;;;;10.28;3.33;;;;;;;14.23;57.65;101194.41;5041977;57;1138961;-65
2023/05/30 00:24:49;;;;;;;12.93;3.43;;;;;;;14.08;58.22;101195.18;5120137;56;1140896;-63
2023/05/30 00:29:54;;;;;;;14.83;4.00;;;;;;;13.94;58.61;101196.30;5146182;56;1141173;-67
2023/05/30 00:35:00;;;;;;;6.27;2.70;;;;;;;13.79;59.06;101192.22;5069182;56;1140767;-66
2023/05/30 00:40:07;;;;;;;8.20;2.83;;;;;;;13.73;59.46;101200.22;5041457;57;1138786;-68
2023/05/30 00:45:13;;;;;;;13.63;3.20;;;;;;;13.67;60.08;101199.37;4909332;59;1138768;-67
2023/05/30 00:50:19;;;;;;;9.33;3.63;;;;;;;13.65;60.19;101193.81;5052271;57;1140930;-67
2023/05/30 00:55:28;;;;;;;10.58;3.22;;;;;;;13.54;60.67;101193.34;5048934;56;1139623;-66
2023/05/30 01:00:38;;;;;;;12.97;3.13;;;;;;;13.38;61.00;101196.36;5048298;56;1141154;-69
2023/05/30 01:05:46;;;;;;;11.33;3.00;;;;;;;13.17;61.23;101193.20;5070029;55;1140854;-66
2023/05/30 01:10:56;;;;;;;13.90;3.63;;;;;;;13.06;61.77;101193.16;5021943;56;1140716;-66
2023/05/30 01:16:14;;;;;;;6.27;2.53;;;;;;;13.02;61.75;101192.55;5020554;56;1140783;-65
2023/05/30 01:21:22;;;;;;;15.37;3.50;;;;;;;13.02;61.89;101199.18;5041921;57;1138825;-63
2023/05/30 01:26:54;;;;;;;13.20;2.53;;;;;;;13.25;62.58;101199.63;5067988;56;1141010;-65
2023/05/30 01:32:02;;;;;;;9.60;3.43;;;;;;;13.43;62.38;101207.97;5158027;55;1140931;-68
2023/05/30 01:37:07;;;;;;;8.37;2.97;;;;;;;13.49;61.98;101211.94;5053102;56;1138695;-67
2023/05/30 01:42:25;;;;;;;7.30;3.00;;;;;;;13.41;61.67;101213.88;5042839;57;1138845;-69
2023/05/30 01:47:38;;;;;;;14.15;3.25;;;;;;;13.22;61.51;101209.16;5035402;56;1138887;-64
2023/05/30 01:52:53;;;;;;;11.90;3.70;;;;;;;13.07;62.22;101218.27;4970846;56;1141008;-66
2023/05/30 01:58:00;;;;;;;13.63;4.43;;;;;;;13.17;62.64;101213.97;5008119;57;1140915;-67
2023/05/30 02:03:07;;;;;;;5.03;3.30;;;;;;;13.31;62.82;101204.92;5030814;56;1140901;-66
2023/05/30 02:08:13;;;;;;;9.20;3.40;;;;;;;13.24;61.93;101214.34;5069708;57;1138607;-63
2023/05/30 02:13:19;;;;;;;7.50;2.77;;;;;;;13.20;62.07;101210.23;5093142;56;1138928;-63
2023/05/30 02:18:27;;;;;;;8.83;3.17;;;;;;;13.19;62.35;101212.04;5168409;56;1138867;-67
2023/05/30 02:23:32;;;;;;;6.47;2.87;;;;;;;12.98;61.88;101210.55;5180612;54;1138900;-66
2023/05/30 02:28:38;;;;;;;6.42;2.70;;;;;;;12.72;62.10;101210.33;5159304;56;1138775;-65
2023/05/30 02:33:44;;;;;;;10.23;2.73;;;;;;;12.55;62.33;101216.05;5032027;56;1138645;-67
2023/05/30 02:38:50;;;;;;;10.63;3.03;;;;;;;12.43;62.59;101223.13;4880053;59;1141198;-66
2023/05/30 02:43:56;;;;;;;13.67;3.30;;;;;;;12.31;62.83;101232.00;5061932;57;1141126;-68
2023/05/30 02:49:02;;;;;;;11.93;3.60;;;;;;;12.35;63.61;101236.60;4891740;59;1141063;-65
2023/05/30 02:54:08;;;;;;;7.03;3.00;;;;;;;12.27;63.20;101235.34;5055114;57;1141047;-66
2023/05/30 02:59:16;;;;;;;19.20;5.53;;;;;;;12.12;63.45;101227.19;5071327;56;1138618;-66
2023/05/30 03:04:23;;;;;;;12.43;3.40;;;;;;;11.89;63.80;101230.19;5053061;57;1140924;-67
2023/05/30 03:09:28;;;;;;;10.72;3.22;;;;;;;11.55;64.33;101236.99;5056850;56;1141186;-67
2023/05/30 03:14:34;;;;;;;19.00;3.10;;;;;;;11.28;65.14;101234.95;5070598;57;1140801;-67
2023/05/30 03:19:40;;;;;;;16.30;3.17;;;;;;;11.14;65.89;101237.22;5050720;57;1140878;-69
2023/05/30 03:24:47;;;;;;;10.47;3.27;;;;;;;11.13;66.75;101247.91;5068764;56;1141321;-64
2023/05/30 03:29:55;;;;;;;17.37;3.20;;;;;;;11.08;67.42;101254.84;5159946;56;1140971;-65
2023/05/30 03:35:01;;;;;;;17.67;3.40;;;;;;;11.01;68.12;101255.34;5081101;56;1141124;-67
2023/05/30 03:40:10;;;;;;;13.57;3.13;;;;;;;11.00;68.62;101256.32;5054042;57;1140835;-67
2023/05/30 03:45:15;;;;;;;11.07;3.40;;;;;;;11.05;69.16;101253.72;5072964;57;1141216;-66
2023/05/30 03:50:21;;;;;;;9.10;3.10;;;;;;;11.12;69.65;101258.98;5056545;57;1141045;-67
2023/05/30 03:55:26;;;;;;;6.00;2.93;;;;;;;11.16;69.93;101263.09;5031869;57;1148366;-68
2023/05/30 04:00:32;;;;;;;12.37;3.42;;;;;;;11.22;70.59;101264.48;4973335;58;1138845;-68
2023/05/30 04:05:38;;;;;;;8.15;3.27;;;;;;;11.23;71.52;101268.83;5000246;56;1141262;-70
2023/05/30 04:10:44;;;;;;;12.03;3.40;;;;;;;11.37;71.91;101268.73;5042885;56;1138784;-65
2023/05/30 04:15:50;;;;;;;10.23;3.10;;;;;;;11.54;72.31;101264.91;4887921;58;1141060;-66
2023/05/30 04:20:55;;;;;;;13.80;3.47;;;;;;;11.76;72.21;101275.75;4911759;58;1141189;-71
2023/05/30 04:26:04;;;;;;;11.97;4.10;;;;;;;11.74;72.33;101274.98;4928841;56;1140923;-68
2023/05/30 04:31:11;;;;;;;14.20;3.40;;;;;;;11.72;73.09;101279.53;5053679;56;1140713;-66
2023/05/30 04:36:20;;;;;;;10.53;3.83;;;;;;;11.79;73.50;101284.78;5075201;56;1141009;-67
2023/05/30 04:41:27;;;;;;;19.75;7.60;;;;;;;11.85;73.61;101283.52;5055815;57;1140890;-67
2023/05/30 04:46:36;;;;;;;20.48;5.60;;;;;;;11.83;73.69;101284.95;5041570;57;1140882;-64
2023/05/30 04:51:41;;;;;;;7.70;3.27;;;;;;;11.86;74.90;101277.27;5106823;56;1140779;-64
2023/05/30 04:56:47;;;;;;;18.83;4.10;;;;;;;11.94;74.68;101282.84;5057951;57;1138823;-66
2023/05/30 05:01:53;;;;;;;19.40;4.27;;;;;;;12.03;75.32;101294.14;5057670;56;1140861;-69
2023/05/30 05:06:59;;;;;;;12.10;3.50;;;;;;;12.21;75.63;101294.64;5077550;57;1141027;-70
2023/05/30 05:12:05;;;;;;;19.13;3.73;;;;;;;12.42;75.42;101298.84;5057663;57;1140943;-65
2023/05/30 05:17:11;;;;;;;19.23;4.13;;;;;;;12.58;75.36;101304.25;5057836;57;1140970;-66
2023/05/30 05:22:16;;;;;;;13.97;3.30;;;;;;;12.63;75.05;101298.61;5077598;57;1140796;-65
2023/05/30 05:27:22;;;;;;;7.33;3.40;;;;;;;12.75;75.41;101304.81;5119429;56;1141011;-67
2023/05/30 05:32:28;;;;;;;15.10;3.60;;;;;;;13.12;75.65;101306.91;5132327;56;1141616;-69
2023/05/30 05:37:34;;;;;;;13.58;3.83;;;;;;;13.47;75.35;101307.72;5161299;56;1140992;-66
2023/05/30 05:42:42;;;;;;;15.58;2.90;;;;;;;13.64;73.05;101301.95;5142847;56;1141003;-66
2023/05/30 05:47:47;;;;;;;16.03;3.83;;;;;;;13.78;71.70;101298.20;5142697;56;1140774;-66
2023/05/30 05:52:53;;;;;;;13.20;3.30;;;;;;;13.95;71.70;101308.84;5106625;56;1140762;-68
2023/05/30 05:57:58;;;;;;;14.40;3.70;;;;;;;14.15;71.04;101314.77;5042020;56;1141053;-69
2023/05/30 06:03:04;;;;;;;9.77;3.13;;;;;;;14.23;70.26;101316.80;5041756;57;1141105;-69
2023/05/30 06:08:10;;;;;;;10.45;3.70;;;;;;;14.47;71.60;101328.18;5062033;57;1138912;-68
2023/05/30 06:13:17;;;;;;;16.00;4.57;;;;;;;14.70;69.73;101323.62;5118118;56;1140728;-66
2023/05/30 06:18:22;;;;;;;9.83;2.93;;;;;;;14.83;70.24;101332.30;5126421;56;1140888;-67
2023/05/30 06:23:28;;;;;;;10.83;3.07;;;;;;;14.94;68.54;101333.61;5126765;56;1138718;-66
2023/05/30 06:28:33;;;;;;;9.78;2.60;;;;;;;14.97;68.29;101341.31;5146319;56;1141096;-68
2023/05/30 06:33:39;;;;;;;7.63;2.17;;;;;;;15.08;66.83;101334.63;5126333;56;1138731;-64
2023/05/30 06:38:44;;;;;;;15.63;3.15;;;;;;;15.07;67.55;101337.42;5122851;56;1138929;-68
2023/05/30 06:43:50;;;;;;;11.30;2.57;;;;;;;15.37;68.01;101338.00;5145479;56;1141004;-68
2023/05/30 06:48:56;;;;;;;5.87;2.20;;;;;;;15.63;67.17;101343.31;5126324;56;1141409;-65
2023/05/30 06:54:01;;;;;;;15.23;2.13;;;;;;;15.86;65.53;101353.84;5086193;56;1138884;-66
2023/05/30 06:59:07;;;;;;;10.77;2.10;;;;;;;16.04;62.90;101350.39;5076063;56;1141421;-68
2023/05/30 07:04:12;;;;;;;4.80;1.87;;;;;;;16.26;60.91;101353.85;5057315;56;1141212;-70
2023/05/30 07:09:18;;;;;;;8.47;1.60;;;;;;;16.32;57.89;101355.50;5057401;56;1138771;-69
2023/05/30 07:14:24;;;;;;;7.40;1.87;;;;;;;16.33;57.08;101361.69;5056372;57;1138789;-70
2023/05/30 07:19:30;;;;;;;11.13;2.57;;;;;;;16.50;59.34;101369.87;5068131;57;1138694;-66
2023/05/30 07:24:36;;;;;;;8.30;1.95;;;;;;;16.86;57.75;101367.59;5071374;56;1140919;-66
2023/05/30 07:29:41;;;;;;;6.73;1.90;;;;;;;17.15;58.13;101373.80;5142562;56;1139112;-66
2023/05/30 07:34:47;;;;;;;5.75;1.70;;;;;;;17.33;56.85;101364.58;5162444;56;1138656;-67
2023/05/30 07:39:53;;;;;;;9.67;2.30;;;;;;;17.37;56.24;101365.99;5142167;56;1138903;-66
2023/05/30 07:44:58;;;;;;;4.50;1.40;;;;;;;17.44;54.79;101360.89;5142429;56;1138881;-66
2023/05/30 07:50:04;;;;;;;5.57;1.40;;;;;;;17.52;55.52;101361.89;5161933;56;1139147;-64
2023/05/30 07:55:10;;;;;;;6.73;1.40;;;;;;;17.62;50.96;101365.87;5140481;56;1138749;-67
2023/05/30 08:00:16;;;;;;;10.57;1.97;;;;;;;17.46;51.63;101366.95;5141120;55;1138895;-67
2023/05/30 08:05:23;;;;;;;4.50;1.47;;;;;;;17.65;53.28;101364.28;5157377;56;1141274;-69
2023/05/30 08:10:28;;;;;;;5.73;1.73;;;;;;;17.89;52.54;101364.63;5132134;56;1139016;-68
2023/05/30 08:15:34;;;;;;;4.00;2.07;;;;;;;17.98;52.00;101364.77;5054661;56;1139012;-66
2023/05/30 08:20:40;;;;;;;8.45;1.67;;;;;;;18.20;50.46;101367.05;5055354;56;1138850;-67
2023/05/30 08:25:46;;;;;;;4.23;1.43;;;;;;;18.38;51.62;101365.28;5074968;57;1138798;-69
2023/05/30 08:30:52;;;;;;;8.13;2.03;;;;;;;18.59;50.85;101367.75;5055225;57;1138870;-69
2023/05/30 08:35:58;;;;;;;3.97;1.50;;;;;;;18.90;50.20;101362.88;5055096;57;1139120;-66
2023/05/30 08:41:03;;;;;;;2.87;1.40;;;;;;;19.07;47.06;101367.91;5073997;57;1138630;-69
2023/05/30 08:46:09;;;;;;;8.87;1.60;;;;;;;18.78;46.82;101366.29;5053743;57;1138759;-67
2023/05/30 08:51:18;;;;;;;5.70;1.87;;;;;;;18.56;48.13;101356.80;5055194;56;1138939;-66
2023/05/30 08:56:30;;;;;;;5.50;1.10;;;;;;;18.61;50.33;101361.74;5057498;56;1138926;-66
2023/05/30 09:01:37;;;;;;;2.83;1.30;;;;;;;19.10;48.37;101367.08;5077659;57;1138798;-66
2023/05/30 09:06:45;;;;;;;2.05;1.25;;;;;;;19.44;47.32;101362.34;5057407;56;1139078;-66
2023/05/30 09:11:52;;;;;;;4.72;1.47;;;;;;;19.83;46.69;101365.52;5104016;56;1138696;-66
2023/05/30 09:16:58;;;;;;;4.86;1.26;;;;;;;20.13;47.42;101362.33;5088984;56;1139098;-66
2023/05/30 09:22:04;;;;;;;3.62;1.20;;;;;;;20.38;44.38;101367.33;5057033;57;1138835;-70
2023/05/30 09:27:09;;;;;;;7.00;1.20;;;;;;;20.36;43.70;101371.52;5115898;56;1138860;-66
2023/05/30 09:32:15;;;;;;;1.92;1.25;;;;;;;20.28;40.02;101373.31;5162831;56;1138853;-66
2023/05/30 09:37:21;;;;;;;5.45;1.20;;;;;;;20.02;39.18;101380.88;5142582;56;1138658;-66
2023/05/30 09:42:26;;;;;;;4.50;1.02;;;;;;;20.01;41.88;101382.41;5142616;56;1138645;-69
2023/05/30 09:47:42;;;;;;;1.10;0.94;;;;;;;20.12;39.81;101378.60;5103301;56;1213694;-68
2023/05/30 09:52:56;;;;;;;3.10;1.20;;;;;;;20.00;39.72;101374.02;5157936;56;1139040;-68
2023/05/30 09:58:03;;;;;;;3.42;1.10;;;;;;;20.19;41.14;101369.72;5141682;56;1138576;-65
2023/05/30 10:03:09;;;;;;;2.55;1.37;;;;;;;20.63;40.74;101370.93;5095843;56;1138718;-67
2023/05/30 10:08:16;;;;;;;3.20;1.12;;;;;;;20.90;37.56;101371.19;5072911;57;1138888;-64
2023/05/30 10:13:21;;;;;;;3.40;1.40;;;;;;;20.79;38.19;101374.16;5097806;56;1138885;-68
2023/05/30 10:18:27;;;;;;;5.08;1.47;;;;;;;20.99;41.08;101379.59;5106543;56;1138919;-67
2023/05/30 10:23:34;;;;;;;6.04;1.80;;;;;;;21.43;39.75;101380.16;5098331;56;1138993;-67
2023/05/30 10:28:42;;;;;;;3.90;2.02;;;;;;;21.79;38.53;101367.68;5071068;57;1138948;-65
2023/05/30 10:33:50;;;;;;;4.35;1.92;;;;;;;22.00;37.27;101363.94;5051865;57;1138825;-66
2023/05/30 10:39:15;;;;;;;7.08;1.80;;;;;;;22.20;37.69;101362.53;5051388;56;1138805;-67
2023/05/30 10:44:54;;;;;;;7.90;1.75;;;;;;;22.16;37.61;101367.09;5148289;56;1138795;-69
2023/05/30 10:50:00;;;;;;;9.90;1.87;;;;;;;21.92;37.52;101362.09;5128882;56;1138752;-66
2023/05/30 10:55:12;;;;;;;3.55;1.30;;;;;;;22.17;37.86;101367.42;5053286;56;1138784;-65
2023/05/30 11:00:24;;;;;;;8.78;2.00;;;;;;;22.59;38.21;101361.70;5073060;56;1138849;-65
2023/05/30 11:05:34;;;;;;;1.65;1.25;;;;;;;22.84;38.67;101362.42;5131548;56;1138684;-68
2023/05/30 11:10:40;;;;;;;4.78;1.67;;;;;;;23.07;37.88;101365.44;5054895;56;1138985;-68
2023/05/30 11:15:46;;;;;;;8.95;1.92;;;;;;;23.11;37.62;101365.93;5162637;56;1138977;-68
2023/05/30 11:20:56;;;;;;;9.05;1.90;;;;;;;23.27;36.13;101352.31;5142502;56;1138880;-66
2023/05/30 11:26:02;;;;;;;4.70;1.75;;;;;;;23.43;36.37;101360.27;5141173;56;1138775;-65
2023/05/30 11:31:19;;;;;;;13.80;2.30;;;;;;;23.56;34.31;101357.48;5126607;56;1138796;-66
2023/05/30 11:36:25;;;;;;;5.50;1.35;;;;;;;23.47;34.29;101358.89;5142027;56;1140885;-67
2023/05/30 11:41:30;;;;;;;17.27;2.02;;;;;;;23.70;34.51;101355.31;5142616;56;1138968;-67
2023/05/30 11:46:36;;;;;;;4.37;1.60;;;;;;;23.71;34.45;101357.84;5162584;56;1141134;-68
2023/05/30 11:51:41;;;;;;;12.28;2.10;;;;;;;23.77;33.23;101364.38;5136006;56;1138854;-67
2023/05/30 11:56:53;;;;;;;4.87;1.67;;;;;;;23.82;34.62;101360.62;5132976;56;1140878;-67
2023/05/30 12:02:01;;;;;;;6.97;2.40;;;;;;;23.94;33.38;101360.48;5147801;56;1138818;-67
2023/05/30 12:07:08;;;;;;;13.13;2.20;;;;;;;24.04;34.28;101355.63;5053369;57;1139071;-69
2023/05/30 12:12:14;;;;;;;7.75;1.50;;;;;;;24.16;32.90;101352.77;5054707;57;1141086;-68
2023/05/30 12:17:22;;;;;;;8.03;2.22;;;;;;;24.18;32.90;101359.34;5074779;56;1139053;-67
2023/05/30 12:22:32;;;;;;;12.80;2.17;;;;;;;24.35;34.51;101351.39;5055161;57;1138874;-68
2023/05/30 12:27:49;;;;;;;4.03;2.00;;;;;;;24.45;33.54;101355.14;5055046;57;1140987;-67
2023/05/30 12:32:56;;;;;;;7.45;2.22;;;;;;;24.54;34.12;101345.91;5036795;57;1138782;-68
2023/05/30 12:38:01;;;;;;;7.28;1.95;;;;;;;24.50;32.72;101342.73;5054567;57;1138997;-68
2023/05/30 12:43:07;;;;;;;4.60;1.35;;;;;;;24.53;33.87;101339.66;5054597;57;1138840;-67
2023/05/30 12:48:13;;;;;;;5.50;1.67;;;;;;;24.75;33.66;101349.98;5074799;57;1138841;-69
2023/05/30 12:53:19;;;;;;;8.70;1.70;;;;;;;24.92;32.48;101347.88;5110998;56;1139005;-68
2023/05/30 12:58:25;;;;;;;7.78;2.45;;;;;;;24.98;33.33;101349.85;5140385;56;1138812;-65
2023/05/30 13:03:30;;;;;;;2.25;1.20;;;;;;;25.12;32.96;101346.76;5102430;56;1138732;-68
2023/05/30 13:08:37;;;;;;;5.20;1.42;;;;;;;25.14;32.25;101331.16;5130326;56;1138969;-70
2023/05/30 13:13:42;;;;;;;5.85;1.57;;;;;;;25.18;30.99;101344.12;5031859;57;1138865;-70
2023/05/30 13:18:48;;;;;;;17.33;2.13;;;;;;;25.20;31.81;101344.77;5042686;57;1138672;-68
2023/05/30 13:23:53;;;;;;;8.70;1.77;;;;;;;25.36;31.08;101350.95;5064215;56;1140893;-65
2023/05/30 13:28:59;;;;;;;3.65;1.70;;;;;;;25.44;31.65;101338.09;5126749;56;1138808;-69
2023/05/30 13:34:05;;;;;;;26.68;6.45;;;;;;;25.54;31.36;101329.60;5126787;56;1138630;-65
2023/05/30 13:39:11;;;;;;;15.70;2.58;;;;;;;25.33;29.15;101354.04;5146685;56;1140819;-67
2023/05/30 13:44:16;;;;;;;6.20;1.37;;;;;;;25.09;29.55;101362.86;5125810;56;1140867;-69
2023/05/30 13:49:31;;;;;;;12.00;2.17;;;;;;;25.15;30.98;101350.44;5125196;56;1138811;-68
2023/05/30 13:54:29;;;;;;;2.62;2.27;;;;;;;25.31;29.95;101351.52;5048371;55;1140860;-70
2023/05/30 13:59:35;;;;;;;9.13;3.30;;;;;;;25.15;29.45;101349.92;5060682;57;1138931;-65
2023/05/30 14:04:40;;;;;;;6.72;1.40;;;;;;;25.06;30.18;101339.40;5091558;56;1138708;-68
2023/05/30 14:09:46;;;;;;;8.83;2.17;;;;;;;25.06;30.18;101339.40;5109896;56;1138711;-68
2023/05/30 14:14:51;;;;;;;9.87;2.70;;;;;;;24.97;30.82;101347.34;5062052;57;1138695;-67
2023/05/30 14:19:57;;;;;;;7.25;1.72;;;;;;;25.00;30.76;101351.86;5041864;57;1139100;-67
2023/05/30 14:25:03;;;;;;;93.30;6.58;;;;;;;24.99;31.20;101345.28;5063653;56;1138820;-67
2023/05/30 14:30:13;;;;;;;1.72;1.32;;;;;;;25.10;31.40;101355.58;5145529;56;1140942;-66
2023/05/30 14:35:17;;;;;;;12.47;2.27;;;;;;;25.23;31.73;101348.42;5125492;56;1138760;-68
2023/05/30 14:40:23;;;;;;;3.40;1.87;;;;;;;25.36;31.97;101345.53;5126257;56;1140767;-66
2023/05/30 14:45:28;;;;;;;6.87;1.57;;;;;;;25.53;31.78;101355.02;5126931;56;1138803;-66
2023/05/30 14:50:34;;;;;;;5.55;1.60;;;;;;;25.70;32.29;101359.66;5132419;56;1138925;-66
2023/05/30 14:55:40;;;;;;;5.83;1.87;;;;;;;25.68;31.88;101352.23;5041723;57;1138986;-68
2023/05/30 15:00:46;;;;;;;5.65;1.35;;;;;;;25.50;31.81;101355.44;5042339;57;1138623;-68
2023/05/30 15:05:51;;;;;;;8.13;2.37;;;;;;;25.39;31.13;101348.66;5062411;56;1138799;-69
2023/05/30 15:10:57;;;;;;;6.72;1.52;;;;;;;25.23;31.68;101343.52;5084023;56;1138971;-67
2023/05/30 15:16:02;;;;;;;10.43;2.05;;;;;;;25.32;31.25;101342.37;5137035;56;1138874;-67
2023/05/30 15:21:08;;;;;;;6.28;1.65;;;;;;;25.32;30.83;101341.53;5139950;56;1141377;-67
2023/05/30 15:26:14;;;;;;;16.40;2.50;;;;;;;25.16;31.70;101337.22;5092467;56;1138992;-67
2023/05/30 15:31:20;;;;;;;11.38;2.08;;;;;;;25.12;31.97;101342.70;5137223;56;1141108;-66
2023/05/30 15:36:26;;;;;;;6.87;1.92;;;;;;;24.85;31.97;101339.70;5137056;56;1141000;-69
2023/05/30 15:41:32;;;;;;;55.12;3.22;;;;;;;24.74;32.77;101342.92;5157691;56;1139340;-66
2023/05/30 15:46:38;;;;;;;3.47;1.72;;;;;;;24.76;32.99;101340.00;5136292;56;1141202;-68
2023/05/30 15:51:45;;;;;;;2.48;1.60;;;;;;;24.68;32.11;101334.72;5109157;56;1140138;-65
2023/05/30 15:56:52;;;;;;;7.37;1.95;;;;;;;24.61;33.01;101333.80;5072472;57;1139093;-66
2023/05/30 16:01:59;;;;;;;6.83;2.00;;;;;;;24.52;32.82;101335.79;5056949;56;1138715;-69
2023/05/30 16:07:05;;;;;;;19.48;2.52;;;;;;;24.46;33.17;101343.30;5128350;56;1139037;-66
2023/05/30 16:12:10;;;;;;;11.18;2.00;;;;;;;24.32;33.50;101334.19;5132869;56;1140838;-67
2023/05/30 16:17:16;;;;;;;9.68;1.72;;;;;;;24.25;33.66;101334.64;5095679;56;1141035;-66
2023/05/30 16:22:22;;;;;;;11.18;1.72;;;;;;;24.20;34.05;101335.16;5048235;57;1138876;-68
2023/05/30 16:27:27;;;;;;;7.50;2.60;;;;;;;24.17;34.18;101344.99;5114481;56;1141077;-68
2023/05/30 16:32:33;;;;;;;6.42;2.37;;;;;;;24.22;34.30;101338.19;5157815;56;1139103;-65
2023/05/30 16:37:38;;;;;;;12.65;2.30;;;;;;;24.22;33.46;101341.73;5138323;56;1139070;-68
2023/05/30 16:42:44;;;;;;;12.15;1.35;;;;;;;24.27;33.32;101339.86;5138394;56;1141148;-67
2023/05/30 16:47:50;;;;;;;8.45;1.72;;;;;;;24.27;33.20;101343.91;5155025;56;1141093;-66
2023/05/30 16:52:55;;;;;;;5.83;2.83;;;;;;;24.25;32.60;101336.50;5088833;56;1138835;-69
2023/05/30 16:58:01;;;;;;;10.78;4.28;;;;;;;24.31;33.51;101339.27;5053210;57;1138822;-67
2023/05/30 17:03:07;;;;;;;9.28;2.16;;;;;;;24.29;33.67;101345.37;5093518;56;1141039;-63
2023/05/30 17:08:12;;;;;;;7.37;1.95;;;;;;;24.32;33.27;101350.92;5127397;56;1138681;-65
2023/05/30 17:13:18;;;;;;;8.25;1.95;;;;;;;24.23;33.12;101357.44;5099487;56;1139044;-65
2023/05/30 17:18:24;;;;;;;12.78;3.17;;;;;;;24.08;32.93;101358.29;5057932;57;1138962;-70
2023/05/30 17:23:30;;;;;;;3.67;1.92;;;;;;;23.94;33.56;101356.42;5037515;57;1141167;-68
2023/05/30 17:28:36;;;;;;;4.65;2.12;;;;;;;23.93;33.81;101359.31;5124297;56;1138908;-67
2023/05/30 17:33:41;;;;;;;5.83;2.02;;;;;;;23.83;34.19;101367.70;5146583;56;1139197;-68
2023/05/30 17:38:47;;;;;;;4.70;1.98;;;;;;;23.80;34.01;101364.02;5126721;56;1139003;-68
2023/05/30 17:43:52;;;;;;;14.93;4.17;;;;;;;23.72;34.25;101360.02;5126263;56;1139001;-65
2023/05/30 17:48:58;;;;;;;15.08;3.25;;;;;;;23.66;34.43;101364.32;5146746;56;1140877;-67
2023/05/30 17:54:04;;;;;;;5.20;2.35;;;;;;;23.58;34.92;101367.59;5057803;56;1141046;-65
2023/05/30 17:59:10;;;;;;;6.83;2.58;;;;;;;23.42;36.30;101368.04;5042140;57;1138860;-65
2023/05/30 18:04:15;;;;;;;6.05;2.58;;;;;;;23.35;36.43;101373.02;5105293;56;1139033;-67
2023/05/30 18:09:21;;;;;;;13.32;3.90;;;;;;;23.24;36.85;101367.52;5116088;56;1138851;-69
2023/05/30 18:14:28;;;;;;;14.25;4.53;;;;;;;23.22;38.31;101372.25;5034552;57;1141099;-63
2023/05/30 18:19:33;;;;;;;17.30;8.00;;;;;;;23.20;38.37;101379.71;5048068;57;1140996;-65
2023/05/30 18:24:39;;;;;;;29.75;14.65;;;;;;;23.19;38.54;101384.78;5084538;56;1140891;-66
2023/05/30 18:29:45;;;;;;;37.90;19.73;;;;;;;23.18;38.88;101383.61;5136921;56;1142988;-63
2023/05/30 18:34:50;;;;;;;82.02;20.40;;;;;;;23.08;38.93;101384.66;5135725;56;1143112;-67
2023/05/30 18:39:56;;;;;;;50.77;17.20;;;;;;;23.08;39.23;101377.08;5157088;56;1143227;-65
2023/05/30 18:49:57;;;;;;;30.05;13.35;;;;;;;23.10;39.97;101391.23;5278870;55;47439;-66
2023/05/30 18:55:02;;;;;;;25.75;12.95;;;;;;;22.98;40.68;101396.72;5044672;57;1138779;-64
2023/05/30 19:00:09;;;;;;;21.17;11.10;;;;;;;22.80;41.63;101393.78;5024556;57;1143039;-66
2023/05/30 19:05:15;;;;;;;20.90;10.85;;;;;;;22.72;42.40;101398.37;5084142;56;1142865;-68
2023/05/30 19:10:20;;;;;;;22.40;9.30;;;;;;;22.61;43.09;101405.52;5017299;57;1142966;-65
2023/05/30 19:15:26;;;;;;;22.65;9.73;;;;;;;22.45;43.13;101412.66;4941638;57;1140943;-68
2023/05/30 19:20:32;;;;;;;27.37;9.27;;;;;;;22.32;43.97;101419.58;5001029;57;1140890;-70
2023/05/30 19:25:37;;;;;;;20.72;7.53;;;;;;;22.25;44.50;101425.35;5043433;57;1140884;-65
2023/05/30 19:30:43;;;;;;;29.42;9.08;;;;;;;22.09;45.16;101424.88;5028810;56;1140868;-67
2023/05/30 19:35:49;;;;;;;23.18;11.28;;;;;;;21.92;45.54;101423.20;5088848;56;1141155;-65
2023/05/30 19:40:54;;;;;;;21.87;9.38;;;;;;;21.70;45.70;101432.80;5161088;56;1142844;-63
2023/05/30 19:46:00;;;;;;;25.35;12.85;;;;;;;21.57;45.96;101431.97;5141374;56;1140943;-69
2023/05/30 19:51:06;;;;;;;41.40;17.85;;;;;;;21.35;45.40;101440.22;5052315;56;1142813;-65
2023/05/30 19:56:12;;;;;;;51.00;18.55;;;;;;;20.84;45.36;101445.28;4994517;57;1143124;-65
2023/05/30 20:01:18;;;;;;;21.12;10.82;;;;;;;20.71;46.54;101458.34;5028102;57;1143373;-67
2023/05/30 20:06:24;;;;;;;17.48;6.67;;;;;;;20.50;46.84;101461.93;5054738;57;1143100;-65
2023/05/30 20:11:30;;;;;;;11.65;5.28;;;;;;;20.31;47.69;101458.97;5054691;57;1140963;-67
2023/05/30 20:16:35;;;;;;;9.05;5.17;;;;;;;20.10;47.86;101468.73;5074871;57;1140968;-64
2023/05/30 20:21:41;;;;;;;21.02;8.53;;;;;;;20.02;47.91;101466.81;5032312;57;1138814;-63
2023/05/30 20:26:48;;;;;;;11.45;5.92;;;;;;;19.97;48.05;101469.15;5022690;57;1140953;-65
2023/05/30 20:31:53;;;;;;;12.15;3.77;;;;;;;19.98;48.15;101467.31;5075042;57;1140905;-67
2023/05/30 20:36:59;;;;;;;7.78;3.20;;;;;;;19.75;47.84;101482.21;5053665;57;1140940;-68
2023/05/30 20:42:11;;;;;;;13.72;3.27;;;;;;;19.59;48.51;101484.25;5042773;57;1138730;-70
2023/05/30 20:47:13;;;;;;;8.65;3.55;;;;;;;19.42;49.59;101492.61;5054453;57;1140838;-65
2023/05/30 20:52:18;;;;;;;8.63;3.00;;;;;;;19.22;50.13;101502.66;5086034;56;1138870;-65
2023/05/30 20:57:24;;;;;;;10.88;2.90;;;;;;;19.05;51.01;101512.84;5083053;56;1139075;-64
2023/05/30 21:02:30;;;;;;;14.44;3.26;;;;;;;18.86;51.57;101521.83;5049705;56;1140957;-67
2023/05/30 21:07:35;;;;;;;6.03;2.67;;;;;;;18.69;52.64;101526.62;5072456;57;1140763;-66
2023/05/30 21:12:41;;;;;;;7.37;2.25;;;;;;;18.59;53.06;101530.69;5119667;56;1139092;-67
2023/05/30 21:17:47;;;;;;;4.12;2.32;;;;;;;18.49;52.91;101532.50;5137909;56;1138917;-65
2023/05/30 21:22:54;;;;;;;11.50;2.60;;;;;;;18.33;53.28;101543.00;5114338;56;1138951;-68
2023/05/30 21:27:59;;;;;;;7.30;2.50;;;;;;;18.16;54.08;101540.56;5052787;56;1140980;-66
2023/05/30 21:33:05;;;;;;;5.60;2.47;;;;;;;18.06;54.84;101538.37;5052770;56;1138828;-66
2023/05/30 21:38:11;;;;;;;12.95;3.08;;;;;;;17.97;55.15;101539.23;5072844;56;1138916;-65
2023/05/30 21:43:16;;;;;;;7.33;2.30;;;;;;;17.86;55.47;101545.59;5052479;57;1141164;-70
2023/05/30 21:48:22;;;;;;;3.83;2.12;;;;;;;17.76;55.77;101557.26;5053011;56;1138643;-65
2023/05/30 21:53:28;;;;;;;12.35;2.00;;;;;;;17.64;56.24;101552.54;5047060;56;1138838;-69
2023/05/30 21:58:33;;;;;;;11.90;2.77;;;;;;;17.56;56.41;101565.75;5061101;56;1140948;-63
2023/05/30 22:03:39;;;;;;;8.13;2.03;;;;;;;17.51;56.83;101567.48;5041744;57;1140811;-68
2023/05/30 22:08:45;;;;;;;5.17;2.17;;;;;;;17.45;56.84;101564.02;5042081;57;1139260;-65
2023/05/30 22:13:50;;;;;;;8.27;2.90;;;;;;;17.34;57.13;101571.32;5061867;56;1138765;-69
2023/05/30 22:18:56;;;;;;;9.68;2.55;;;;;;;17.23;57.49;101578.97;5042334;56;1138838;-67
2023/05/30 22:24:01;;;;;;;6.33;2.90;;;;;;;17.12;58.32;101579.90;5105003;56;1139285;-70
2023/05/30 22:29:07;;;;;;;9.50;2.53;;;;;;;17.03;58.23;101578.05;5146098;56;1138717;-68
2023/05/30 22:34:12;;;;;;;8.88;2.20;;;;;;;16.90;58.74;101579.27;5126084;56;1139011;-70
2023/05/30 22:39:18;;;;;;;3.63;2.10;;;;;;;16.83;58.85;101585.61;5126094;56;1138835;-67
2023/05/30 22:44:25;;;;;;;10.40;2.17;;;;;;;16.68;59.04;101583.78;5146197;56;1138956;-65
2023/05/30 22:49:30;;;;;;;5.73;2.13;;;;;;;16.57;59.18;101582.99;5125357;56;1141062;-66
2023/05/30 22:54:36;;;;;;;6.65;2.05;;;;;;;16.43;59.54;101592.19;5137019;56;1138916;-66
2023/05/30 22:59:41;;;;;;;5.07;2.53;;;;;;;16.31;59.88;101587.89;5162470;56;1138632;-67
2023/05/30 23:04:47;;;;;;;6.90;2.42;;;;;;;16.22;60.25;101600.66;5143378;56;1148133;-69
2023/05/30 23:09:53;;;;;;;4.97;2.83;;;;;;;16.11;60.19;101593.57;5123923;56;1138775;-67